KMDW/MDW METAR and TAF weather

Enter ICAO airport designator
Station Type Date Time Source
KMDW METAR 2019/08/24 22:53 UTC NOAA

KMDW 242253Z 05011KT 10SM FEW050 SCT250 22/11 A3019 RMK AO2 SLP218 T02220106


Station Type Date Time Source
KMDW Decoded METAR 2019/08/24 22:53 UTC NOAA

Station name not available
Aug 24, 2019 - 06:53 PM EDT / 2019.08.24 2253 UTC
Wind: from the NE (050 degrees) at 13 MPH (11 KT):0
Visibility: 10 mile(s):0
Sky conditions: partly cloudy
Temperature: 72.0 F (22.2 C)
Dew Point: 51.1 F (10.6 C)
Relative Humidity: 47%
Pressure (altimeter): 30.19 in. Hg (1022 hPa)
ob: KMDW 242253Z 05011KT 10SM FEW050 SCT250 22/11 A3019 RMK AO2 SLP218 T02220106
cycle: 23

Station Type Date Time Source
KMDW TAF 2019/08/24 21:03 UTC NOAA

TAF
AMD KMDW 242101Z 2421/2524 06012KT P6SM FEW050 SCT300
FM250400 12006KT P6SM FEW300
FM251600 10012KT P6SM FEW050 BKN250

Example: see airport list